sensor_id;sensor_type;location;lat;lon;timestamp;P1;durP1;ratioP1;P2;durP2;ratioP2
80261;SDS011;69567;47.574;8.580;2023-04-21T00:01:12;0.10;;;0.10;;
80261;SDS011;69567;47.574;8.580;2023-04-21T00:03:38;0.45;;;0.25;;
80261;SDS011;69567;47.574;8.580;2023-04-21T00:06:05;0.20;;;0.20;;
80261;SDS011;69567;47.574;8.580;2023-04-21T00:08:31;0.63;;;0.52;;
80261;SDS011;69567;47.574;8.580;2023-04-21T00:10:57;0.63;;;0.55;;
80261;SDS011;69567;47.574;8.580;2023-04-21T00:13:23;1.05;;;0.30;;
80261;SDS011;69567;47.574;8.580;2023-04-21T00:15:48;0.25;;;0.25;;
80261;SDS011;69567;47.574;8.580;2023-04-21T00:18:15;0.10;;;0.08;;
80261;SDS011;69567;47.574;8.580;2023-04-21T00:20:40;0.15;;;0.15;;
80261;SDS011;69567;47.574;8.580;2023-04-21T00:23:06;0.30;;;0.25;;
80261;SDS011;69567;47.574;8.580;2023-04-21T00:25:34;0.80;;;0.20;;
80261;SDS011;69567;47.574;8.580;2023-04-21T00:28:00;0.25;;;0.10;;
80261;SDS011;69567;47.574;8.580;2023-04-21T00:30:25;0.40;;;0.40;;
80261;SDS011;69567;47.574;8.580;2023-04-21T00:32:51;0.43;;;0.38;;
80261;SDS011;69567;47.574;8.580;2023-04-21T00:35:16;0.88;;;0.22;;
80261;SDS011;69567;47.574;8.580;2023-04-21T00:37:41;3.00;;;0.55;;
80261;SDS011;69567;47.574;8.580;2023-04-21T00:40:07;0.17;;;0.17;;
80261;SDS011;69567;47.574;8.580;2023-04-21T00:42:33;0.10;;;0.10;;
80261;SDS011;69567;47.574;8.580;2023-04-21T00:44:59;0.08;;;0.08;;
80261;SDS011;69567;47.574;8.580;2023-04-21T00:47:24;0.00;;;0.00;;
80261;SDS011;69567;47.574;8.580;2023-04-21T00:49:50;0.20;;;0.20;;
80261;SDS011;69567;47.574;8.580;2023-04-21T00:52:16;0.28;;;0.28;;
80261;SDS011;69567;47.574;8.580;2023-04-21T00:54:42;2.55;;;0.28;;
80261;SDS011;69567;47.574;8.580;2023-04-21T00:57:09;0.75;;;0.08;;
80261;SDS011;69567;47.574;8.580;2023-04-21T00:59:35;0.43;;;0.30;;
80261;SDS011;69567;47.574;8.580;2023-04-21T01:02:00;0.70;;;0.50;;
80261;SDS011;69567;47.574;8.580;2023-04-21T01:04:26;1.48;;;0.60;;
80261;SDS011;69567;47.574;8.580;2023-04-21T01:06:52;1.30;;;0.55;;
80261;SDS011;69567;47.574;8.580;2023-04-21T01:09:18;0.10;;;0.10;;
80261;SDS011;69567;47.574;8.580;2023-04-21T01:14:27;0.43;;;0.30;;
80261;SDS011;69567;47.574;8.580;2023-04-21T01:16:53;0.68;;;0.30;;
80261;SDS011;69567;47.574;8.580;2023-04-21T01:19:18;0.50;;;0.43;;
80261;SDS011;69567;47.574;8.580;2023-04-21T01:21:44;0.00;;;0.00;;
80261;SDS011;69567;47.574;8.580;2023-04-21T01:24:09;1.48;;;0.40;;
80261;SDS011;69567;47.574;8.580;2023-04-21T01:26:35;1.42;;;0.63;;
80261;SDS011;69567;47.574;8.580;2023-04-21T01:29:01;0.00;;;0.00;;
80261;SDS011;69567;47.574;8.580;2023-04-21T01:31:26;0.47;;;0.47;;
80261;SDS011;69567;47.574;8.580;2023-04-21T01:33:52;0.40;;;0.20;;
80261;SDS011;69567;47.574;8.580;2023-04-21T01:36:17;0.32;;;0.32;;
80261;SDS011;69567;47.574;8.580;2023-04-21T01:38:43;0.20;;;0.20;;
80261;SDS011;69567;47.574;8.580;2023-04-21T01:41:09;0.00;;;0.00;;
80261;SDS011;69567;47.574;8.580;2023-04-21T01:43:35;0.17;;;0.17;;
80261;SDS011;69567;47.574;8.580;2023-04-21T01:46:01;0.20;;;0.20;;
80261;SDS011;69567;47.574;8.580;2023-04-21T01:48:27;0.00;;;0.00;;
80261;SDS011;69567;47.574;8.580;2023-04-21T01:50:53;0.20;;;0.20;;
80261;SDS011;69567;47.574;8.580;2023-04-21T01:53:18;0.57;;;0.57;;
80261;SDS011;69567;47.574;8.580;2023-04-21T01:55:43;0.03;;;0.00;;
80261;SDS011;69567;47.574;8.580;2023-04-21T01:58:09;0.10;;;0.08;;
80261;SDS011;69567;47.574;8.580;2023-04-21T02:00:34;1.00;;;0.32;;
80261;SDS011;69567;47.574;8.580;2023-04-21T02:03:00;0.00;;;0.00;;
80261;SDS011;69567;47.574;8.580;2023-04-21T02:05:25;0.17;;;0.10;;
80261;SDS011;69567;47.574;8.580;2023-04-21T02:07:51;0.10;;;0.10;;
80261;SDS011;69567;47.574;8.580;2023-04-21T02:10:16;0.30;;;0.30;;
80261;SDS011;69567;47.574;8.580;2023-04-21T02:12:41;0.00;;;0.00;;
80261;SDS011;69567;47.574;8.580;2023-04-21T02:15:07;0.13;;;0.13;;
80261;SDS011;69567;47.574;8.580;2023-04-21T02:17:32;0.00;;;0.00;;
80261;SDS011;69567;47.574;8.580;2023-04-21T02:19:58;0.22;;;0.22;;
80261;SDS011;69567;47.574;8.580;2023-04-21T02:22:23;0.50;;;0.10;;
80261;SDS011;69567;47.574;8.580;2023-04-21T02:24:49;0.40;;;0.10;;
80261;SDS011;69567;47.574;8.580;2023-04-21T02:27:14;0.17;;;0.10;;
80261;SDS011;69567;47.574;8.580;2023-04-21T02:29:40;0.03;;;0.03;;
80261;SDS011;69567;47.574;8.580;2023-04-21T02:32:05;0.20;;;0.13;;
80261;SDS011;69567;47.574;8.580;2023-04-21T02:34:31;0.10;;;0.10;;
80261;SDS011;69567;47.574;8.580;2023-04-21T02:36:57;0.45;;;0.20;;
80261;SDS011;69567;47.574;8.580;2023-04-21T02:39:23;0.47;;;0.43;;
80261;SDS011;69567;47.574;8.580;2023-04-21T02:41:49;0.10;;;0.10;;
80261;SDS011;69567;47.574;8.580;2023-04-21T02:44:14;0.08;;;0.08;;
80261;SDS011;69567;47.574;8.580;2023-04-21T02:46:40;0.20;;;0.20;;
80261;SDS011;69567;47.574;8.580;2023-04-21T02:49:05;0.08;;;0.08;;
80261;SDS011;69567;47.574;8.580;2023-04-21T02:51:31;0.20;;;0.15;;
80261;SDS011;69567;47.574;8.580;2023-04-21T02:53:57;0.20;;;0.20;;
80261;SDS011;69567;47.574;8.580;2023-04-21T02:56:22;0.00;;;0.00;;
80261;SDS011;69567;47.574;8.580;2023-04-21T02:58:48;0.98;;;0.28;;
80261;SDS011;69567;47.574;8.580;2023-04-21T03:01:13;1.38;;;0.13;;
80261;SDS011;69567;47.574;8.580;2023-04-21T03:03:38;0.73;;;0.73;;
80261;SDS011;69567;47.574;8.580;2023-04-21T03:06:04;0.20;;;0.17;;
80261;SDS011;69567;47.574;8.580;2023-04-21T03:08:30;0.08;;;0.00;;
80261;SDS011;69567;47.574;8.580;2023-04-21T03:10:56;0.20;;;0.15;;
80261;SDS011;69567;47.574;8.580;2023-04-21T03:13:21;0.10;;;0.10;;
80261;SDS011;69567;47.574;8.580;2023-04-21T03:15:48;0.00;;;0.00;;
80261;SDS011;69567;47.574;8.580;2023-04-21T03:18:14;0.47;;;0.30;;
80261;SDS011;69567;47.574;8.580;2023-04-21T03:20:39;0.10;;;0.10;;
80261;SDS011;69567;47.574;8.580;2023-04-21T03:23:05;0.35;;;0.35;;
80261;SDS011;69567;47.574;8.580;2023-04-21T03:25:30;0.13;;;0.13;;
80261;SDS011;69567;47.574;8.580;2023-04-21T03:27:55;0.55;;;0.20;;
80261;SDS011;69567;47.574;8.580;2023-04-21T03:30:22;0.93;;;0.47;;
80261;SDS011;69567;47.574;8.580;2023-04-21T03:32:49;0.50;;;0.43;;
80261;SDS011;69567;47.574;8.580;2023-04-21T03:35:15;0.47;;;0.47;;
80261;SDS011;69567;47.574;8.580;2023-04-21T03:37:40;0.10;;;0.10;;
80261;SDS011;69567;47.574;8.580;2023-04-21T03:40:06;0.40;;;0.40;;
80261;SDS011;69567;47.574;8.580;2023-04-21T03:42:32;0.30;;;0.20;;
80261;SDS011;69567;47.574;8.580;2023-04-21T03:47:26;0.20;;;0.17;;
80261;SDS011;69567;47.574;8.580;2023-04-21T03:49:51;0.55;;;0.50;;
80261;SDS011;69567;47.574;8.580;2023-04-21T03:52:17;0.00;;;0.00;;
80261;SDS011;69567;47.574;8.580;2023-04-21T03:54:42;0.00;;;0.00;;
80261;SDS011;69567;47.574;8.580;2023-04-21T03:57:08;0.10;;;0.10;;
80261;SDS011;69567;47.574;8.580;2023-04-21T03:59:33;1.95;;;1.05;;
80261;SDS011;69567;47.574;8.580;2023-04-21T04:01:58;0.77;;;0.68;;
80261;SDS011;69567;47.574;8.580;2023-04-21T04:04:24;0.93;;;0.47;;
80261;SDS011;69567;47.574;8.580;2023-04-21T04:06:49;1.30;;;0.73;;
80261;SDS011;69567;47.574;8.580;2023-04-21T04:09:15;0.20;;;0.20;;
80261;SDS011;69567;47.574;8.580;2023-04-21T04:11:40;0.77;;;0.60;;
80261;SDS011;69567;47.574;8.580;2023-04-21T04:14:06;0.68;;;0.35;;
80261;SDS011;69567;47.574;8.580;2023-04-21T04:16:32;0.55;;;0.55;;
80261;SDS011;69567;47.574;8.580;2023-04-21T04:18:58;0.63;;;0.63;;
80261;SDS011;69567;47.574;8.580;2023-04-21T04:21:24;0.30;;;0.30;;
80261;SDS011;69567;47.574;8.580;2023-04-21T04:23:50;0.00;;;0.00;;
80261;SDS011;69567;47.574;8.580;2023-04-21T04:26:17;0.10;;;0.10;;
80261;SDS011;69567;47.574;8.580;2023-04-21T04:28:43;0.08;;;0.08;;
80261;SDS011;69567;47.574;8.580;2023-04-21T04:31:08;0.00;;;0.00;;
80261;SDS011;69567;47.574;8.580;2023-04-21T04:33:34;0.10;;;0.10;;
80261;SDS011;69567;47.574;8.580;2023-04-21T04:36:00;0.35;;;0.30;;
80261;SDS011;69567;47.574;8.580;2023-04-21T04:38:25;0.95;;;0.32;;
80261;SDS011;69567;47.574;8.580;2023-04-21T04:40:53;0.60;;;0.32;;
80261;SDS011;69567;47.574;8.580;2023-04-21T04:43:19;1.08;;;0.63;;
80261;SDS011;69567;47.574;8.580;2023-04-21T04:45:44;0.60;;;0.40;;
80261;SDS011;69567;47.574;8.580;2023-04-21T04:48:10;0.52;;;0.32;;
80261;SDS011;69567;47.574;8.580;2023-04-21T04:50:35;0.38;;;0.32;;
80261;SDS011;69567;47.574;8.580;2023-04-21T04:53:01;0.03;;;0.03;;
80261;SDS011;69567;47.574;8.580;2023-04-21T04:56:01;0.15;;;0.15;;
80261;SDS011;69567;47.574;8.580;2023-04-21T04:58:27;1.70;;;1.48;;
80261;SDS011;69567;47.574;8.580;2023-04-21T05:00:52;1.20;;;0.82;;
80261;SDS011;69567;47.574;8.580;2023-04-21T05:03:18;0.88;;;0.75;;
80261;SDS011;69567;47.574;8.580;2023-04-21T05:05:44;0.13;;;0.13;;
80261;SDS011;69567;47.574;8.580;2023-04-21T05:08:10;0.30;;;0.25;;
80261;SDS011;69567;47.574;8.580;2023-04-21T05:10:35;0.50;;;0.50;;
80261;SDS011;69567;47.574;8.580;2023-04-21T05:13:02;0.63;;;0.38;;
80261;SDS011;69567;47.574;8.580;2023-04-21T05:15:28;1.15;;;0.77;;
80261;SDS011;69567;47.574;8.580;2023-04-21T05:17:54;0.10;;;0.10;;
80261;SDS011;69567;47.574;8.580;2023-04-21T05:20:20;0.52;;;0.52;;
80261;SDS011;69567;47.574;8.580;2023-04-21T05:22:45;5.80;;;3.78;;
80261;SDS011;69567;47.574;8.580;2023-04-21T05:25:11;12.88;;;6.95;;
80261;SDS011;69567;47.574;8.580;2023-04-21T05:27:39;2.67;;;0.82;;
80261;SDS011;69567;47.574;8.580;2023-04-21T05:30:07;2.70;;;1.30;;
80261;SDS011;69567;47.574;8.580;2023-04-21T05:32:33;3.55;;;2.00;;
80261;SDS011;69567;47.574;8.580;2023-04-21T05:34:59;1.85;;;1.75;;
80261;SDS011;69567;47.574;8.580;2023-04-21T05:37:24;1.48;;;0.93;;
80261;SDS011;69567;47.574;8.580;2023-04-21T05:39:50;0.88;;;0.63;;
80261;SDS011;69567;47.574;8.580;2023-04-21T05:42:16;0.40;;;0.40;;
80261;SDS011;69567;47.574;8.580;2023-04-21T05:44:42;1.92;;;0.20;;
80261;SDS011;69567;47.574;8.580;2023-04-21T05:47:09;0.57;;;0.57;;
80261;SDS011;69567;47.574;8.580;2023-04-21T05:49:35;1.35;;;1.25;;
80261;SDS011;69567;47.574;8.580;2023-04-21T05:52:00;0.40;;;0.35;;
80261;SDS011;69567;47.574;8.580;2023-04-21T05:54:26;0.70;;;0.45;;
80261;SDS011;69567;47.574;8.580;2023-04-21T05:56:52;1.70;;;0.60;;
80261;SDS011;69567;47.574;8.580;2023-04-21T05:59:17;0.70;;;0.70;;
80261;SDS011;69567;47.574;8.580;2023-04-21T06:01:43;0.98;;;0.52;;
80261;SDS011;69567;47.574;8.580;2023-04-21T06:04:10;0.25;;;0.25;;
80261;SDS011;69567;47.574;8.580;2023-04-21T06:06:35;0.00;;;0.00;;
80261;SDS011;69567;47.574;8.580;2023-04-21T06:09:01;0.13;;;0.13;;
80261;SDS011;69567;47.574;8.580;2023-04-21T06:11:27;0.20;;;0.20;;
80261;SDS011;69567;47.574;8.580;2023-04-21T06:13:52;0.30;;;0.30;;
80261;SDS011;69567;47.574;8.580;2023-04-21T06:16:22;0.40;;;0.38;;
80261;SDS011;69567;47.574;8.580;2023-04-21T06:18:48;0.35;;;0.35;;
80261;SDS011;69567;47.574;8.580;2023-04-21T06:21:15;1.00;;;1.00;;
80261;SDS011;69567;47.574;8.580;2023-04-21T06:23:40;0.70;;;0.70;;
80261;SDS011;69567;47.574;8.580;2023-04-21T06:26:06;0.55;;;0.30;;
80261;SDS011;69567;47.574;8.580;2023-04-21T06:28:32;0.63;;;0.28;;
80261;SDS011;69567;47.574;8.580;2023-04-21T06:30:59;0.73;;;0.68;;
80261;SDS011;69567;47.574;8.580;2023-04-21T06:33:26;2.08;;;1.08;;
80261;SDS011;69567;47.574;8.580;2023-04-21T06:35:51;1.63;;;0.80;;
80261;SDS011;69567;47.574;8.580;2023-04-21T06:38:18;1.20;;;0.45;;
80261;SDS011;69567;47.574;8.580;2023-04-21T06:40:44;0.50;;;0.50;;
80261;SDS011;69567;47.574;8.580;2023-04-21T06:43:10;0.20;;;0.20;;
80261;SDS011;69567;47.574;8.580;2023-04-21T06:45:36;0.75;;;0.75;;
80261;SDS011;69567;47.574;8.580;2023-04-21T06:48:01;0.47;;;0.45;;
80261;SDS011;69567;47.574;8.580;2023-04-21T06:50:27;0.25;;;0.22;;
80261;SDS011;69567;47.574;8.580;2023-04-21T06:52:52;1.20;;;0.43;;
80261;SDS011;69567;47.574;8.580;2023-04-21T06:55:20;0.47;;;0.20;;
80261;SDS011;69567;47.574;8.580;2023-04-21T06:57:45;0.35;;;0.35;;
80261;SDS011;69567;47.574;8.580;2023-04-21T07:00:11;0.10;;;0.10;;
80261;SDS011;69567;47.574;8.580;2023-04-21T07:02:37;1.38;;;1.30;;
80261;SDS011;69567;47.574;8.580;2023-04-21T07:05:03;0.88;;;0.88;;
80261;SDS011;69567;47.574;8.580;2023-04-21T07:07:29;1.45;;;0.93;;
80261;SDS011;69567;47.574;8.580;2023-04-21T07:09:55;1.15;;;1.15;;
80261;SDS011;69567;47.574;8.580;2023-04-21T07:12:22;1.10;;;1.10;;
80261;SDS011;69567;47.574;8.580;2023-04-21T07:14:47;0.77;;;0.77;;
80261;SDS011;69567;47.574;8.580;2023-04-21T07:17:13;1.83;;;0.70;;
80261;SDS011;69567;47.574;8.580;2023-04-21T07:19:39;0.50;;;0.50;;
80261;SDS011;69567;47.574;8.580;2023-04-21T07:22:04;1.08;;;1.08;;
80261;SDS011;69567;47.574;8.580;2023-04-21T07:24:30;1.08;;;1.05;;
80261;SDS011;69567;47.574;8.580;2023-04-21T07:26:56;2.33;;;1.52;;
80261;SDS011;69567;47.574;8.580;2023-04-21T07:29:23;0.90;;;0.90;;
80261;SDS011;69567;47.574;8.580;2023-04-21T07:31:49;0.57;;;0.57;;
80261;SDS011;69567;47.574;8.580;2023-04-21T07:34:15;1.42;;;1.20;;
80261;SDS011;69567;47.574;8.580;2023-04-21T07:36:41;0.60;;;0.60;;
80261;SDS011;69567;47.574;8.580;2023-04-21T07:39:07;1.30;;;1.30;;
80261;SDS011;69567;47.574;8.580;2023-04-21T07:41:32;2.05;;;1.05;;
80261;SDS011;69567;47.574;8.580;2023-04-21T07:43:58;1.00;;;1.00;;
80261;SDS011;69567;47.574;8.580;2023-04-21T07:46:25;1.08;;;0.90;;
80261;SDS011;69567;47.574;8.580;2023-04-21T07:51:00;0.30;;;0.28;;
80261;SDS011;69567;47.574;8.580;2023-04-21T07:53:27;0.43;;;0.43;;
80261;SDS011;69567;47.574;8.580;2023-04-21T07:55:54;0.40;;;0.40;;
80261;SDS011;69567;47.574;8.580;2023-04-21T07:58:21;9.48;;;5.65;;
80261;SDS011;69567;47.574;8.580;2023-04-21T08:00:48;14.80;;;11.98;;
80261;SDS011;69567;47.574;8.580;2023-04-21T08:03:15;21.30;;;15.02;;
80261;SDS011;69567;47.574;8.580;2023-04-21T08:05:41;9.23;;;6.20;;
80261;SDS011;69567;47.574;8.580;2023-04-21T08:08:10;0.43;;;0.38;;
80261;SDS011;69567;47.574;8.580;2023-04-21T08:10:36;1.33;;;0.50;;
80261;SDS011;69567;47.574;8.580;2023-04-21T08:13:03;1.10;;;0.50;;
80261;SDS011;69567;47.574;8.580;2023-04-21T08:15:30;0.77;;;0.40;;
80261;SDS011;69567;47.574;8.580;2023-04-21T08:17:57;0.35;;;0.22;;
80261;SDS011;69567;47.574;8.580;2023-04-21T08:20:24;0.70;;;0.45;;
80261;SDS011;69567;47.574;8.580;2023-04-21T08:22:51;0.20;;;0.20;;
80261;SDS011;69567;47.574;8.580;2023-04-21T08:25:19;0.25;;;0.25;;
80261;SDS011;69567;47.574;8.580;2023-04-21T08:27:46;0.20;;;0.20;;
80261;SDS011;69567;47.574;8.580;2023-04-21T08:30:13;0.43;;;0.40;;
80261;SDS011;69567;47.574;8.580;2023-04-21T08:32:40;0.17;;;0.17;;
80261;SDS011;69567;47.574;8.580;2023-04-21T08:35:07;0.32;;;0.32;;
80261;SDS011;69567;47.574;8.580;2023-04-21T08:37:34;0.30;;;0.15;;
80261;SDS011;69567;47.574;8.580;2023-04-21T08:40:02;0.38;;;0.38;;
80261;SDS011;69567;47.574;8.580;2023-04-21T08:42:30;0.10;;;0.10;;
80261;SDS011;69567;47.574;8.580;2023-04-21T08:44:58;1.42;;;0.20;;
80261;SDS011;69567;47.574;8.580;2023-04-21T08:47:25;0.20;;;0.20;;
80261;SDS011;69567;47.574;8.580;2023-04-21T08:49:54;0.38;;;0.38;;
80261;SDS011;69567;47.574;8.580;2023-04-21T08:52:22;0.40;;;0.22;;
80261;SDS011;69567;47.574;8.580;2023-04-21T08:54:49;0.35;;;0.35;;
80261;SDS011;69567;47.574;8.580;2023-04-21T08:57:17;0.22;;;0.17;;
80261;SDS011;69567;47.574;8.580;2023-04-21T08:59:45;0.22;;;0.20;;
80261;SDS011;69567;47.574;8.580;2023-04-21T09:02:12;0.20;;;0.20;;
80261;SDS011;69567;47.574;8.580;2023-04-21T09:04:41;0.43;;;0.30;;
80261;SDS011;69567;47.574;8.580;2023-04-21T09:07:09;0.60;;;0.30;;
80261;SDS011;69567;47.574;8.580;2023-04-21T09:09:50;0.40;;;0.40;;
80261;SDS011;69567;47.574;8.580;2023-04-21T09:12:18;0.25;;;0.25;;
80261;SDS011;69567;47.574;8.580;2023-04-21T09:14:46;0.30;;;0.30;;
80261;SDS011;69567;47.574;8.580;2023-04-21T09:17:14;0.20;;;0.20;;
80261;SDS011;69567;47.574;8.580;2023-04-21T09:19:42;0.20;;;0.20;;
80261;SDS011;69567;47.574;8.580;2023-04-21T09:22:13;0.63;;;0.30;;
80261;SDS011;69567;47.574;8.580;2023-04-21T09:24:43;6.95;;;2.35;;
80261;SDS011;69567;47.574;8.580;2023-04-21T09:27:11;0.38;;;0.30;;
80261;SDS011;69567;47.574;8.580;2023-04-21T09:29:38;0.13;;;0.13;;
80261;SDS011;69567;47.574;8.580;2023-04-21T09:32:12;0.68;;;0.30;;
80261;SDS011;69567;47.574;8.580;2023-04-21T09:34:43;0.60;;;0.40;;
80261;SDS011;69567;47.574;8.580;2023-04-21T09:37:11;0.35;;;0.25;;
80261;SDS011;69567;47.574;8.580;2023-04-21T09:39:40;0.50;;;0.15;;
80261;SDS011;69567;47.574;8.580;2023-04-21T09:42:11;0.20;;;0.10;;
80261;SDS011;69567;47.574;8.580;2023-04-21T09:44:38;0.90;;;0.47;;
80261;SDS011;69567;47.574;8.580;2023-04-21T09:47:04;0.60;;;0.35;;
80261;SDS011;69567;47.574;8.580;2023-04-21T09:49:37;0.38;;;0.30;;
80261;SDS011;69567;47.574;8.580;2023-04-21T09:54:36;0.35;;;0.35;;
80261;SDS011;69567;47.574;8.580;2023-04-21T09:57:08;2.85;;;1.67;;
80261;SDS011;69567;47.574;8.580;2023-04-21T09:59:39;0.20;;;0.20;;
80261;SDS011;69567;47.574;8.580;2023-04-21T10:02:10;1.08;;;0.43;;
80261;SDS011;69567;47.574;8.580;2023-04-21T10:04:39;0.20;;;0.20;;
80261;SDS011;69567;47.574;8.580;2023-04-21T10:07:08;0.10;;;0.10;;
80261;SDS011;69567;47.574;8.580;2023-04-21T10:09:37;0.73;;;0.50;;
80261;SDS011;69567;47.574;8.580;2023-04-21T10:12:14;0.60;;;0.30;;
80261;SDS011;69567;47.574;8.580;2023-04-21T10:14:42;0.20;;;0.20;;
80261;SDS011;69567;47.574;8.580;2023-04-21T10:21:54;8.48;;;6.55;;
80261;SDS011;69567;47.574;8.580;2023-04-21T10:24:22;1.20;;;0.95;;
80261;SDS011;69567;47.574;8.580;2023-04-21T10:29:27;0.25;;;0.17;;
80261;SDS011;69567;47.574;8.580;2023-04-21T10:32:14;0.40;;;0.13;;
80261;SDS011;69567;47.574;8.580;2023-04-21T10:35:00;0.47;;;0.30;;
80261;SDS011;69567;47.574;8.580;2023-04-21T10:37:30;0.50;;;0.50;;
80261;SDS011;69567;47.574;8.580;2023-04-21T10:39:58;0.20;;;0.20;;
80261;SDS011;69567;47.574;8.580;2023-04-21T10:42:26;2.90;;;0.65;;
80261;SDS011;69567;47.574;8.580;2023-04-21T10:47:36;0.32;;;0.32;;
80261;SDS011;69567;47.574;8.580;2023-04-21T10:50:13;0.73;;;0.43;;
80261;SDS011;69567;47.574;8.580;2023-04-21T10:52:44;1.02;;;0.82;;
80261;SDS011;69567;47.574;8.580;2023-04-21T10:55:18;1.27;;;0.47;;
80261;SDS011;69567;47.574;8.580;2023-04-21T10:57:47;0.80;;;0.80;;
80261;SDS011;69567;47.574;8.580;2023-04-21T11:00:16;0.70;;;0.47;;
80261;SDS011;69567;47.574;8.580;2023-04-21T11:05:27;0.80;;;0.73;;
80261;SDS011;69567;47.574;8.580;2023-04-21T11:08:04;1.38;;;0.47;;
80261;SDS011;69567;47.574;8.580;2023-04-21T11:10:42;2.03;;;1.13;;
80261;SDS011;69567;47.574;8.580;2023-04-21T11:13:12;1.80;;;1.23;;
80261;SDS011;69567;47.574;8.580;2023-04-21T11:15:40;0.65;;;0.63;;
80261;SDS011;69567;47.574;8.580;2023-04-21T11:18:08;1.60;;;1.10;;
80261;SDS011;69567;47.574;8.580;2023-04-21T11:20:40;3.00;;;1.40;;
80261;SDS011;69567;47.574;8.580;2023-04-21T11:23:15;1.42;;;1.33;;
80261;SDS011;69567;47.574;8.580;2023-04-21T11:25:44;0.68;;;0.68;;
80261;SDS011;69567;47.574;8.580;2023-04-21T11:28:19;1.85;;;1.13;;
80261;SDS011;69567;47.574;8.580;2023-04-21T11:30:47;1.63;;;1.17;;
80261;SDS011;69567;47.574;8.580;2023-04-21T11:33:15;1.13;;;0.80;;
80261;SDS011;69567;47.574;8.580;2023-04-21T11:35:45;1.23;;;1.10;;
80261;SDS011;69567;47.574;8.580;2023-04-21T11:38:13;0.70;;;0.70;;
80261;SDS011;69567;47.574;8.580;2023-04-21T11:40:43;1.20;;;1.08;;
80261;SDS011;69567;47.574;8.580;2023-04-21T11:43:12;1.10;;;0.80;;
80261;SDS011;69567;47.574;8.580;2023-04-21T11:45:40;1.42;;;1.23;;
80261;SDS011;69567;47.574;8.580;2023-04-21T11:48:12;0.88;;;0.88;;
80261;SDS011;69567;47.574;8.580;2023-04-21T11:50:46;2.63;;;1.23;;
80261;SDS011;69567;47.574;8.580;2023-04-21T11:53:16;2.83;;;1.30;;
80261;SDS011;69567;47.574;8.580;2023-04-21T11:55:45;1.65;;;0.70;;
80261;SDS011;69567;47.574;8.580;2023-04-21T11:58:13;1.35;;;0.68;;
80261;SDS011;69567;47.574;8.580;2023-04-21T12:00:43;2.47;;;1.70;;
80261;SDS011;69567;47.574;8.580;2023-04-21T12:03:12;3.20;;;2.08;;
80261;SDS011;69567;47.574;8.580;2023-04-21T12:05:41;2.75;;;1.50;;
80261;SDS011;69567;47.574;8.580;2023-04-21T12:08:13;2.85;;;1.45;;
80261;SDS011;69567;47.574;8.580;2023-04-21T12:10:43;2.78;;;1.45;;
80261;SDS011;69567;47.574;8.580;2023-04-21T12:13:12;2.55;;;1.50;;
80261;SDS011;69567;47.574;8.580;2023-04-21T12:15:45;2.53;;;1.48;;
80261;SDS011;69567;47.574;8.580;2023-04-21T12:18:13;1.75;;;1.20;;
80261;SDS011;69567;47.574;8.580;2023-04-21T12:20:47;1.80;;;0.80;;
80261;SDS011;69567;47.574;8.580;2023-04-21T12:23:18;2.72;;;1.60;;
80261;SDS011;69567;47.574;8.580;2023-04-21T12:25:46;2.40;;;1.58;;
80261;SDS011;69567;47.574;8.580;2023-04-21T12:28:15;1.45;;;1.15;;
80261;SDS011;69567;47.574;8.580;2023-04-21T12:30:43;2.42;;;1.38;;
80261;SDS011;69567;47.574;8.580;2023-04-21T12:33:12;2.33;;;1.50;;
80261;SDS011;69567;47.574;8.580;2023-04-21T12:35:40;2.47;;;1.35;;
80261;SDS011;69567;47.574;8.580;2023-04-21T12:38:08;2.67;;;1.70;;
80261;SDS011;69567;47.574;8.580;2023-04-21T12:40:37;2.40;;;1.63;;
80261;SDS011;69567;47.574;8.580;2023-04-21T12:43:05;1.75;;;1.58;;
80261;SDS011;69567;47.574;8.580;2023-04-21T12:45:33;2.40;;;1.20;;
80261;SDS011;69567;47.574;8.580;2023-04-21T12:48:02;1.60;;;1.17;;
80261;SDS011;69567;47.574;8.580;2023-04-21T12:50:31;2.20;;;1.42;;
80261;SDS011;69567;47.574;8.580;2023-04-21T12:52:59;3.00;;;1.85;;
80261;SDS011;69567;47.574;8.580;2023-04-21T12:55:27;3.38;;;1.98;;
80261;SDS011;69567;47.574;8.580;2023-04-21T12:57:56;2.97;;;2.47;;
80261;SDS011;69567;47.574;8.580;2023-04-21T13:00:24;3.92;;;2.45;;
80261;SDS011;69567;47.574;8.580;2023-04-21T13:02:53;1.77;;;1.42;;
80261;SDS011;69567;47.574;8.580;2023-04-21T13:05:22;3.13;;;2.55;;
80261;SDS011;69567;47.574;8.580;2023-04-21T13:07:50;1.80;;;1.67;;
80261;SDS011;69567;47.574;8.580;2023-04-21T13:10:18;5.00;;;2.10;;
80261;SDS011;69567;47.574;8.580;2023-04-21T13:25:43;2.95;;;2.22;;
80261;SDS011;69567;47.574;8.580;2023-04-21T13:28:11;9.32;;;6.10;;
80261;SDS011;69567;47.574;8.580;2023-04-21T13:30:39;4.85;;;3.22;;
80261;SDS011;69567;47.574;8.580;2023-04-21T13:33:07;2.47;;;2.00;;
80261;SDS011;69567;47.574;8.580;2023-04-21T13:35:36;2.90;;;2.28;;
80261;SDS011;69567;47.574;8.580;2023-04-21T13:38:04;3.50;;;1.98;;
80261;SDS011;69567;47.574;8.580;2023-04-21T13:40:32;2.63;;;2.20;;
80261;SDS011;69567;47.574;8.580;2023-04-21T13:43:01;2.88;;;2.20;;
80261;SDS011;69567;47.574;8.580;2023-04-21T13:45:29;2.40;;;2.00;;
80261;SDS011;69567;47.574;8.580;2023-04-21T13:47:57;2.60;;;2.40;;
80261;SDS011;69567;47.574;8.580;2023-04-21T13:50:24;3.38;;;2.38;;
80261;SDS011;69567;47.574;8.580;2023-04-21T13:52:52;2.33;;;1.95;;
80261;SDS011;69567;47.574;8.580;2023-04-21T13:55:20;2.25;;;1.95;;
80261;SDS011;69567;47.574;8.580;2023-04-21T13:57:48;3.38;;;2.20;;
80261;SDS011;69567;47.574;8.580;2023-04-21T14:00:17;3.13;;;2.13;;
80261;SDS011;69567;47.574;8.580;2023-04-21T14:02:45;1.73;;;1.60;;
80261;SDS011;69567;47.574;8.580;2023-04-21T14:05:13;3.00;;;2.13;;
80261;SDS011;69567;47.574;8.580;2023-04-21T14:07:41;3.28;;;1.90;;
80261;SDS011;69567;47.574;8.580;2023-04-21T14:10:09;2.80;;;2.03;;
80261;SDS011;69567;47.574;8.580;2023-04-21T14:12:37;2.05;;;1.77;;
80261;SDS011;69567;47.574;8.580;2023-04-21T14:15:06;2.15;;;1.67;;
80261;SDS011;69567;47.574;8.580;2023-04-21T14:17:35;2.05;;;1.75;;
80261;SDS011;69567;47.574;8.580;2023-04-21T14:20:03;2.80;;;1.73;;
80261;SDS011;69567;47.574;8.580;2023-04-21T14:22:32;1.98;;;1.70;;
80261;SDS011;69567;47.574;8.580;2023-04-21T14:25:00;2.58;;;2.05;;
80261;SDS011;69567;47.574;8.580;2023-04-21T14:27:28;2.35;;;1.88;;
80261;SDS011;69567;47.574;8.580;2023-04-21T14:29:56;3.20;;;1.98;;
80261;SDS011;69567;47.574;8.580;2023-04-21T14:32:24;2.85;;;2.35;;
80261;SDS011;69567;47.574;8.580;2023-04-21T14:34:54;2.30;;;1.92;;
80261;SDS011;69567;47.574;8.580;2023-04-21T14:37:24;2.50;;;1.70;;
80261;SDS011;69567;47.574;8.580;2023-04-21T14:39:52;3.70;;;2.22;;
80261;SDS011;69567;47.574;8.580;2023-04-21T14:42:19;3.20;;;2.25;;
80261;SDS011;69567;47.574;8.580;2023-04-21T14:44:47;2.28;;;1.70;;
80261;SDS011;69567;47.574;8.580;2023-04-21T14:47:15;2.28;;;1.70;;
80261;SDS011;69567;47.574;8.580;2023-04-21T14:49:43;2.15;;;1.83;;
80261;SDS011;69567;47.574;8.580;2023-04-21T14:52:12;2.88;;;1.80;;
80261;SDS011;69567;47.574;8.580;2023-04-21T14:54:40;2.38;;;1.80;;
80261;SDS011;69567;47.574;8.580;2023-04-21T14:57:07;2.55;;;2.15;;
80261;SDS011;69567;47.574;8.580;2023-04-21T14:59:45;2.42;;;1.90;;
80261;SDS011;69567;47.574;8.580;2023-04-21T15:02:13;2.85;;;1.80;;
80261;SDS011;69567;47.574;8.580;2023-04-21T15:04:41;1.95;;;1.50;;
80261;SDS011;69567;47.574;8.580;2023-04-21T15:07:10;2.50;;;2.15;;
80261;SDS011;69567;47.574;8.580;2023-04-21T15:09:39;3.55;;;2.20;;
80261;SDS011;69567;47.574;8.580;2023-04-21T15:12:11;3.47;;;2.28;;
80261;SDS011;69567;47.574;8.580;2023-04-21T15:14:40;1.88;;;1.73;;
80261;SDS011;69567;47.574;8.580;2023-04-21T15:17:08;3.13;;;2.30;;
80261;SDS011;69567;47.574;8.580;2023-04-21T15:19:35;2.88;;;2.13;;
80261;SDS011;69567;47.574;8.580;2023-04-21T15:22:03;3.45;;;2.08;;
80261;SDS011;69567;47.574;8.580;2023-04-21T15:24:31;2.20;;;1.90;;